Mountain Home Air Force Base
KMUO : now visible

Airfield :











YOU CAN JOIN US ON...

 
LOGIN :

Register | Disclaimer

   EN    FR    IT 

 









Legend :    VFR   Marginal VFR   IFR   Intensive IFR   Very Intensive IFR
Visi :
Ceiling :
>= 8 km
>= 3000ft
5 to 8 km
1000 to 3000 ft
1500m to 5 km
500 to 1000 ft
800 to 1500m
200 to 500 ft
< 800m
< 200 ft
Symbols :   Thunderstorms  Fog  Heavy snow  Heavy precipitations  Wind > 20 kt






- Airport Elevation : 2996 ft


KMUO - Mountain Home Air Force Base

CURRENT METAR :
  • 090958Z AUTO 32011KT 10SM CLR 02/02 A3012 RMK AO2 SLP211 T00150015 $

EXPIRED METARs :
  • 090858Z AUTO 31008KT 10SM CLR 02/02 A3011 RMK AO2 SLP207 T00210021 51007 $
  • 090758Z AUTO 28008KT 10SM BKN060 02/02 A3010 RMK AO2 SLP204 T00240024 $

TAF TAF KMUO
Valid from the 09 at 10:00 until the 10 at 16:00 UTC


090955Z 0910/1016 31009KT 9999 FEW050 BKN180 QNH3011INS
BECMG 0918/0919 31012KT 9999 FEW040 QNH3017INS
BECMG 1001/1002 VRB06KT 9999 FEW040 QNH3019INS
BECMG 1010/1011 10009KT 9999 SCT040 SCT180 QNH3025INS TX05/0922Z TNM02/1009Z



MET'MAP, your aeronautical weather chart ! - Copyright ORBIFLY December 2007 - Disclaimer

ORBIFLY MET'MAP TEAM :

Programming & Development : Alexandra Zaïnal
Concept & original design : Baudouin d'Aumeries
Assistance for programming : Marc-Olivier Méhu
Technical & hardware support : Manuel Goepfert

Contact : metmap@orbifly.com




SOURCES & CREDITS :

   NOAA       Earth
Advisory